createdAt,value
2022-10-19T00:01:36.836Z,100406.00
2022-10-19T00:04:39.890Z,100416.87
2022-10-19T00:07:42.644Z,100418.09
2022-10-19T00:10:45.626Z,100424.84
2022-10-19T00:13:48.414Z,100401.25
2022-10-19T00:16:53.190Z,100408.53
2022-10-19T00:19:56.070Z,100408.12
2022-10-19T00:23:00.563Z,100405.97
2022-10-19T00:26:03.829Z,100401.94
2022-10-19T00:29:08.570Z,100396.59
2022-10-19T00:32:11.453Z,100390.69
2022-10-19T00:35:14.464Z,100388.72
2022-10-19T00:38:18.269Z,100382.28
2022-10-19T00:41:22.855Z,100386.81
2022-10-19T00:44:31.530Z,100391.09
2022-10-19T00:47:34.898Z,100381.22
2022-10-19T00:50:37.968Z,100383.75
2022-10-19T00:53:41.666Z,100377.72
2022-10-19T00:56:46.826Z,100380.72
2022-10-19T00:59:50.019Z,100375.78
2022-10-19T01:02:52.845Z,100377.03
2022-10-19T01:05:56.028Z,100372.87
2022-10-19T01:08:58.837Z,100375.50
2022-10-19T01:12:20.720Z,100367.75
2022-10-19T01:15:36.552Z,100358.53
2022-10-19T01:18:41.715Z,100358.59
2022-10-19T01:22:05.688Z,100349.59
2022-10-19T01:25:24.043Z,100365.56
2022-10-19T01:29:14.651Z,100364.44
2022-10-19T01:32:29.781Z,100367.41
2022-10-19T01:35:50.894Z,100370.16
2022-10-19T01:39:00.249Z,100370.91
2022-10-19T01:42:08.991Z,100378.03
2022-10-19T01:45:18.176Z,100374.88
2022-10-19T01:48:25.230Z,100363.66
2022-10-19T01:51:34.551Z,100359.13
2022-10-19T01:54:44.015Z,100360.25
2022-10-19T01:57:49.539Z,100360.34
2022-10-19T02:00:53.468Z,100360.31
2022-10-19T02:03:57.635Z,100364.94
2022-10-19T02:07:02.322Z,100365.31
2022-10-19T02:10:05.321Z,100359.50
2022-10-19T02:13:08.658Z,100355.59
2022-10-19T02:16:17.968Z,100356.34
2022-10-19T02:19:25.378Z,100368.31
2022-10-19T02:22:28.885Z,100357.75
2022-10-19T02:25:33.032Z,100357.78
2022-10-19T02:28:35.727Z,100367.84
2022-10-19T02:31:38.766Z,100360.44
2022-10-19T02:34:42.242Z,100362.09
2022-10-19T02:37:45.345Z,100356.81
2022-10-19T02:41:06.949Z,100355.00
2022-10-19T02:44:15.922Z,100356.94
2022-10-19T02:47:26.618Z,100357.12
2022-10-19T02:50:29.710Z,100364.91
2022-10-19T02:53:32.439Z,100360.69
2022-10-19T02:56:36.295Z,100370.31
2022-10-19T02:59:39.014Z,100368.38
2022-10-19T03:02:42.201Z,100382.91
2022-10-19T03:05:44.964Z,100377.81
2022-10-19T03:08:48.202Z,100389.34
2022-10-19T03:11:51.229Z,100379.94
2022-10-19T03:14:54.385Z,100385.03
2022-10-19T03:17:57.211Z,100383.69
2022-10-19T03:21:05.491Z,100391.16
2022-10-19T03:24:08.204Z,100392.84
2022-10-19T03:27:11.278Z,100397.56
2022-10-19T03:30:14.124Z,100398.66
2022-10-19T03:33:17.215Z,100386.34
2022-10-19T03:36:25.587Z,100383.88
2022-10-19T03:39:28.633Z,100382.47
2022-10-19T03:42:31.472Z,100390.91
2022-10-19T03:45:35.357Z,100393.03
2022-10-19T03:48:38.277Z,100400.66
2022-10-19T03:51:41.769Z,100407.53
2022-10-19T03:54:44.903Z,100415.59
2022-10-19T03:57:47.965Z,100408.94
2022-10-19T04:00:50.821Z,100410.94
2022-10-19T04:03:55.112Z,100399.91
2022-10-19T04:06:57.999Z,100401.94
2022-10-19T04:10:00.996Z,100417.13
2022-10-19T04:13:03.723Z,100408.47
2022-10-19T04:16:07.855Z,100396.84
2022-10-19T04:19:14.417Z,100400.81
2022-10-19T04:22:17.489Z,100384.59
2022-10-19T04:25:21.499Z,100387.97
2022-10-19T04:28:24.642Z,100390.28
2022-10-19T04:31:29.195Z,100385.94
2022-10-19T04:34:35.221Z,100394.84
2022-10-19T04:37:40.425Z,100397.59
2022-10-19T04:40:43.423Z,100397.31
2022-10-19T04:43:46.651Z,100410.72
2022-10-19T04:46:49.668Z,100394.03
2022-10-19T04:49:52.691Z,100392.78
2022-10-19T04:52:55.778Z,100394.28
2022-10-19T04:55:58.574Z,100400.41
2022-10-19T04:59:01.863Z,100391.81
2022-10-19T05:02:04.722Z,100385.19
2022-10-19T05:05:08.208Z,100396.37
2022-10-19T05:08:11.659Z,100397.00
2022-10-19T05:11:15.887Z,100401.44
2022-10-19T05:14:18.626Z,100407.84
2022-10-19T05:17:22.305Z,100415.69
2022-10-19T05:20:25.376Z,100421.81
2022-10-19T05:23:29.391Z,100429.41
2022-10-19T05:26:32.182Z,100417.28
2022-10-19T05:29:35.354Z,100411.94
2022-10-19T05:32:38.069Z,100410.37
2022-10-19T05:35:41.027Z,100417.88
2022-10-19T05:38:45.183Z,100416.66
2022-10-19T05:41:48.371Z,100425.47
2022-10-19T05:44:51.405Z,100422.84
2022-10-19T05:47:54.388Z,100427.91
2022-10-19T05:50:57.670Z,100429.41
2022-10-19T05:54:00.777Z,100440.31
2022-10-19T05:57:04.343Z,100437.81
2022-10-19T06:00:07.992Z,100443.81
2022-10-19T06:03:15.667Z,100455.78
2022-10-19T06:06:19.231Z,100462.09
2022-10-19T06:09:22.003Z,100457.53
2022-10-19T06:12:25.255Z,100457.44
2022-10-19T06:15:27.999Z,100460.87
2022-10-19T06:18:31.041Z,100458.22
2022-10-19T06:21:34.812Z,100470.47
2022-10-19T06:24:37.810Z,100471.59
2022-10-19T06:27:40.607Z,100466.41
2022-10-19T06:30:43.807Z,100468.38
2022-10-19T06:33:49.221Z,100472.34
2022-10-19T06:36:53.064Z,100481.94
2022-10-19T06:39:56.825Z,100483.22
2022-10-19T06:42:59.976Z,100487.87
2022-10-19T06:46:08.515Z,100492.31
2022-10-19T06:49:13.418Z,100497.00
2022-10-19T06:52:16.151Z,100494.00
2022-10-19T06:55:20.247Z,100492.56
2022-10-19T06:58:22.976Z,100504.22
2022-10-19T07:01:26.126Z,100510.75
2022-10-19T07:04:29.416Z,100507.09
2022-10-19T07:07:33.263Z,100507.28
2022-10-19T07:10:37.112Z,100507.25
2022-10-19T07:13:40.488Z,100510.47
2022-10-19T07:16:43.396Z,100511.69
2022-10-19T07:19:46.370Z,100513.25
2022-10-19T07:22:49.194Z,100517.59
2022-10-19T07:25:53.695Z,100517.53
2022-10-19T07:28:57.702Z,100513.44
2022-10-19T07:32:01.860Z,100505.50
2022-10-19T07:35:06.749Z,100507.47
2022-10-19T07:38:09.681Z,100505.28
2022-10-19T07:41:15.913Z,100507.19
2022-10-19T07:44:19.730Z,100513.19
2022-10-19T07:47:22.462Z,100511.56
2022-10-19T07:50:27.443Z,100505.78
2022-10-19T07:53:30.229Z,100505.13
2022-10-19T07:56:33.264Z,100504.00
2022-10-19T07:59:36.442Z,100504.94
2022-10-19T08:02:57.866Z,100499.28
2022-10-19T08:06:08.579Z,100496.41
2022-10-19T08:09:15.661Z,100497.63
2022-10-19T08:12:26.004Z,100501.28
2022-10-19T08:15:30.273Z,100505.66
2022-10-19T08:18:33.422Z,100509.59
2022-10-19T08:21:37.524Z,100505.13
2022-10-19T08:24:40.610Z,100498.25
2022-10-19T08:27:43.415Z,100499.09
2022-10-19T08:30:46.649Z,100501.97
2022-10-19T08:33:50.713Z,100502.38
2022-10-19T08:36:54.926Z,100505.13
2022-10-19T08:39:57.741Z,100503.22
2022-10-19T08:43:05.824Z,100500.88
2022-10-19T08:46:20.279Z,100502.81
2022-10-19T08:49:26.310Z,100509.47
2022-10-19T08:52:34.726Z,100491.91
2022-10-19T08:56:03.625Z,100487.19
2022-10-19T08:59:48.452Z,100486.81
2022-10-19T09:03:37.887Z,100485.22
2022-10-19T09:06:52.454Z,100484.09
2022-10-19T09:09:59.601Z,100481.75
2022-10-19T09:13:07.671Z,100484.44
2022-10-19T09:16:19.566Z,100489.13
2022-10-19T09:19:26.167Z,100473.06
2022-10-19T09:22:35.281Z,100486.31
2022-10-19T09:25:38.809Z,100493.34
2022-10-19T09:28:58.605Z,100477.28
2022-10-19T09:32:05.225Z,100492.06
2022-10-19T09:35:19.331Z,100482.22
2022-10-19T09:38:24.535Z,100479.44
2022-10-19T09:41:27.654Z,100480.97
2022-10-19T09:44:30.707Z,100471.91
2022-10-19T09:47:41.255Z,100477.37
2022-10-19T09:50:44.958Z,100478.59
2022-10-19T09:53:51.935Z,100475.34
2022-10-19T09:56:56.444Z,100474.78
2022-10-19T10:00:04.928Z,100479.91
2022-10-19T10:03:43.797Z,100460.06
2022-10-19T10:06:48.393Z,100473.28
2022-10-19T10:09:52.619Z,100479.12
2022-10-19T10:12:55.743Z,100476.72
2022-10-19T10:16:02.048Z,100476.16
2022-10-19T10:19:12.857Z,100478.09
2022-10-19T10:22:52.152Z,100485.75
2022-10-19T10:25:59.673Z,100480.25
2022-10-19T10:29:02.617Z,100494.56
2022-10-19T10:32:09.416Z,100473.09
2022-10-19T10:35:26.602Z,100468.69
2022-10-19T10:38:34.021Z,100463.53
2022-10-19T10:41:39.903Z,100488.16
2022-10-19T10:44:49.022Z,100480.19
2022-10-19T10:47:53.735Z,100469.16
2022-10-19T10:50:57.868Z,100480.94
2022-10-19T10:54:31.704Z,100454.59
2022-10-19T10:57:41.629Z,100461.94
2022-10-19T11:00:45.228Z,100460.66
2022-10-19T11:03:53.371Z,100453.50
2022-10-19T11:07:02.636Z,100451.06
2022-10-19T11:10:14.674Z,100454.09
2022-10-19T11:13:26.760Z,100455.56
2022-10-19T11:16:34.167Z,100448.44
2022-10-19T11:19:42.368Z,100445.12
2022-10-19T11:22:53.199Z,100440.72
2022-10-19T11:26:09.495Z,100440.69
2022-10-19T11:29:31.483Z,100430.16
2022-10-19T11:33:06.789Z,100415.34
2022-10-19T11:36:23.178Z,100418.84
2022-10-19T11:39:39.566Z,100412.56
2022-10-19T11:42:54.448Z,100395.88
2022-10-19T11:46:14.023Z,100397.44
2022-10-19T11:49:31.862Z,100401.00
2022-10-19T11:52:46.507Z,100387.88
2022-10-19T11:56:10.867Z,100378.91
2022-10-19T12:02:45.723Z,100382.06
2022-10-19T12:06:09.386Z,100367.66
2022-10-19T12:09:36.228Z,100373.88
2022-10-19T12:12:42.900Z,100362.84
2022-10-19T12:15:49.482Z,100356.59
2022-10-19T12:18:55.984Z,100369.03
2022-10-19T12:22:01.082Z,100359.69
2022-10-19T12:25:04.930Z,100353.69
2022-10-19T12:28:11.334Z,100349.34
2022-10-19T12:31:14.938Z,100367.62
2022-10-19T12:34:39.625Z,100354.69
2022-10-19T12:37:59.991Z,100361.91
2022-10-19T12:41:21.005Z,100359.47
2022-10-19T12:45:01.416Z,100348.56
2022-10-19T12:48:11.265Z,100363.25
2022-10-19T12:51:15.978Z,100349.72
2022-10-19T12:54:25.712Z,100355.44
2022-10-19T12:57:29.755Z,100353.88
2022-10-19T13:00:38.136Z,100347.50
2022-10-19T13:03:43.075Z,100337.84
2022-10-19T13:07:01.642Z,100339.66
2022-10-19T13:10:07.911Z,100330.44
2022-10-19T13:13:51.221Z,100347.91
2022-10-19T13:17:02.557Z,100357.69
2022-10-19T13:20:14.671Z,100344.56
2022-10-19T13:23:17.809Z,100342.44
2022-10-19T13:26:31.203Z,100340.19
2022-10-19T13:29:37.281Z,100349.97
2022-10-19T13:32:44.698Z,100343.72
2022-10-19T13:35:47.857Z,100350.94
2022-10-19T13:39:00.620Z,100355.09
2022-10-19T13:42:03.996Z,100353.06
2022-10-19T13:45:07.349Z,100357.00
2022-10-19T13:48:26.159Z,100358.03
2022-10-19T13:52:09.898Z,100351.50
2022-10-19T13:55:22.055Z,100337.78
2022-10-19T13:59:03.388Z,100384.97
2022-10-19T14:02:22.754Z,100361.09
2022-10-19T14:05:35.937Z,100345.97
2022-10-19T14:09:00.603Z,100347.84
2022-10-19T14:12:26.912Z,100348.84
2022-10-19T14:15:34.992Z,100334.34
2022-10-19T14:18:38.262Z,100349.53
2022-10-19T14:21:41.386Z,100346.97
2022-10-19T14:24:44.703Z,100345.06
2022-10-19T14:27:48.917Z,100351.06
2022-10-19T14:30:56.674Z,100353.69
2022-10-19T14:34:01.869Z,100348.66
2022-10-19T14:37:05.116Z,100333.91
2022-10-19T14:40:26.721Z,100341.50
2022-10-19T14:43:34.521Z,100341.28
2022-10-19T14:46:38.402Z,100330.28
2022-10-19T14:49:41.570Z,100332.25
2022-10-19T14:52:44.757Z,100325.41
2022-10-19T14:55:48.334Z,100329.97
2022-10-19T14:58:55.492Z,100329.34
2022-10-19T15:02:01.403Z,100343.50
2022-10-19T15:05:05.876Z,100347.03
2022-10-19T15:08:11.165Z,100338.72
2022-10-19T15:11:22.442Z,100357.41
2022-10-19T15:14:30.766Z,100366.44
2022-10-19T15:17:36.333Z,100353.69
2022-10-19T15:20:54.998Z,100341.84
2022-10-19T15:24:34.908Z,100349.09
2022-10-19T15:27:40.095Z,100341.41
2022-10-19T15:30:42.791Z,100340.25
2022-10-19T15:33:56.547Z,100350.25
2022-10-19T15:37:01.045Z,100349.63
2022-10-19T15:40:13.396Z,100357.84
2022-10-19T15:43:34.401Z,100353.09
2022-10-19T15:46:49.621Z,100361.00
2022-10-19T15:49:58.632Z,100369.63
2022-10-19T15:53:01.894Z,100362.94
2022-10-19T15:56:04.966Z,100365.31
2022-10-19T15:59:24.563Z,100365.59
2022-10-19T16:02:27.437Z,100352.25
2022-10-19T16:05:31.989Z,100360.03
2022-10-19T16:08:34.871Z,100358.47
2022-10-19T16:11:38.019Z,100356.56
2022-10-19T16:14:40.824Z,100365.44
2022-10-19T16:17:46.140Z,100370.88
2022-10-19T16:20:49.579Z,100376.72
2022-10-19T16:23:53.285Z,100382.91
2022-10-19T16:26:56.781Z,100387.09
2022-10-19T16:30:00.924Z,100398.88
2022-10-19T16:33:04.076Z,100408.62
2022-10-19T16:36:08.238Z,100416.00
2022-10-19T16:39:11.513Z,100418.72
2022-10-19T16:42:15.194Z,100427.25
2022-10-19T16:45:18.602Z,100423.03
2022-10-19T16:48:24.103Z,100412.47
2022-10-19T16:51:34.728Z,100410.84
2022-10-19T16:54:38.628Z,100424.28
2022-10-19T16:57:41.528Z,100430.22
2022-10-19T17:00:47.068Z,100424.63
2022-10-19T17:03:50.241Z,100440.63
2022-10-19T17:06:53.865Z,100452.19
2022-10-19T17:09:57.857Z,100453.72
2022-10-19T17:13:01.709Z,100444.25
2022-10-19T17:16:12.028Z,100448.53
2022-10-19T17:19:17.861Z,100445.69
2022-10-19T17:22:22.085Z,100449.84
2022-10-19T17:25:26.839Z,100452.62
2022-10-19T17:28:29.875Z,100455.91
2022-10-19T17:31:35.358Z,100463.44
2022-10-19T17:34:41.463Z,100467.97
2022-10-19T17:37:45.301Z,100476.91
2022-10-19T17:40:48.427Z,100484.94
2022-10-19T17:43:52.537Z,100494.00
2022-10-19T17:46:56.251Z,100478.59
2022-10-19T17:50:00.700Z,100483.25
2022-10-19T17:53:04.346Z,100498.47
2022-10-19T17:56:08.472Z,100497.38
2022-10-19T17:59:11.981Z,100498.88
2022-10-19T18:02:16.304Z,100489.16
2022-10-19T18:05:20.079Z,100490.63
2022-10-19T18:08:23.224Z,100489.09
2022-10-19T18:11:40.528Z,100495.53
2022-10-19T18:14:45.323Z,100494.28
2022-10-19T18:17:50.173Z,100489.50
2022-10-19T18:20:53.737Z,100494.41
2022-10-19T18:23:59.391Z,100501.16
2022-10-19T18:27:02.936Z,100500.38
2022-10-19T18:30:06.760Z,100493.88
2022-10-19T18:33:10.232Z,100495.97
2022-10-19T18:36:15.548Z,100507.28
2022-10-19T18:39:20.233Z,100501.16
2022-10-19T18:42:24.784Z,100508.13
2022-10-19T18:45:29.115Z,100515.94
2022-10-19T18:48:33.591Z,100505.47
2022-10-19T18:51:40.654Z,100521.47
2022-10-19T18:54:44.510Z,100512.94
2022-10-19T18:57:52.982Z,100519.47
2022-10-19T19:01:24.762Z,100515.94
2022-10-19T19:04:31.516Z,100510.47
2022-10-19T19:07:35.666Z,100521.06
2022-10-19T19:10:39.350Z,100514.09
2022-10-19T19:13:48.949Z,100528.44
2022-10-19T19:16:54.913Z,100520.06
2022-10-19T19:19:58.668Z,100525.09
2022-10-19T19:23:02.371Z,100530.28
2022-10-19T19:26:08.123Z,100533.06
2022-10-19T19:29:16.965Z,100534.47
2022-10-19T19:32:20.748Z,100542.50
2022-10-19T19:35:24.721Z,100551.47
2022-10-19T19:38:30.988Z,100550.41
2022-10-19T19:41:35.490Z,100550.59
2022-10-19T19:44:39.338Z,100561.12
2022-10-19T19:47:42.841Z,100563.03
2022-10-19T19:50:47.843Z,100560.34
2022-10-19T19:53:50.957Z,100571.44
2022-10-19T19:56:54.755Z,100579.16
2022-10-19T19:59:58.888Z,100586.13
2022-10-19T20:03:02.744Z,100594.44
2022-10-19T20:06:07.771Z,100597.00
2022-10-19T20:09:11.829Z,100605.41
2022-10-19T20:12:15.811Z,100611.78
2022-10-19T20:15:20.719Z,100608.53
2022-10-19T20:18:24.502Z,100608.66
2022-10-19T20:21:28.250Z,100618.53
2022-10-19T20:24:37.639Z,100631.62
2022-10-19T20:27:41.207Z,100625.56
2022-10-19T20:30:45.572Z,100633.81
2022-10-19T20:33:49.084Z,100629.69
2022-10-19T20:36:53.986Z,100629.72
2022-10-19T20:39:58.140Z,100632.53
2022-10-19T20:43:01.568Z,100641.53
2022-10-19T20:46:11.211Z,100631.97
2022-10-19T20:49:15.213Z,100640.75
2022-10-19T20:52:18.416Z,100633.97
2022-10-19T20:55:23.147Z,100633.53
2022-10-19T20:58:26.066Z,100630.47
2022-10-19T21:01:32.053Z,100636.78
2022-10-19T21:04:36.275Z,100640.47
2022-10-19T21:07:39.681Z,100637.47
2022-10-19T21:10:42.848Z,100642.50
2022-10-19T21:13:46.555Z,100645.88
2022-10-19T21:16:49.432Z,100653.31
2022-10-19T21:19:55.024Z,100650.31
2022-10-19T21:22:59.815Z,100646.47
2022-10-19T21:26:02.914Z,100657.37
2022-10-19T21:29:09.620Z,100656.50
2022-10-19T21:32:12.766Z,100662.47
2022-10-19T21:35:15.567Z,100659.66
2022-10-19T21:38:18.645Z,100666.84
2022-10-19T21:41:25.395Z,100671.97
2022-10-19T21:44:29.676Z,100671.72
2022-10-19T21:47:32.914Z,100670.69
2022-10-19T21:50:36.259Z,100661.31
2022-10-19T21:53:39.682Z,100657.59
2022-10-19T21:56:43.231Z,100654.13
2022-10-19T21:59:46.272Z,100657.16
2022-10-19T22:02:49.341Z,100647.63
2022-10-19T22:05:52.717Z,100647.34
2022-10-19T22:08:56.007Z,100649.56
2022-10-19T22:11:59.211Z,100650.47
2022-10-19T22:15:01.985Z,100656.16
2022-10-19T22:18:05.084Z,100658.56
2022-10-19T22:21:11.299Z,100656.63
2022-10-19T22:24:15.510Z,100650.91
2022-10-19T22:27:18.270Z,100656.84
2022-10-19T22:30:21.359Z,100659.47
2022-10-19T22:33:25.679Z,100651.69
2022-10-19T22:36:28.744Z,100648.66
2022-10-19T22:39:32.916Z,100642.50
2022-10-19T22:42:36.309Z,100644.25
2022-10-19T22:45:39.888Z,100645.03
2022-10-19T22:48:42.995Z,100652.16
2022-10-19T22:51:45.874Z,100648.31
2022-10-19T22:54:50.683Z,100658.69
2022-10-19T22:57:53.549Z,100660.91
2022-10-19T23:01:07.775Z,100658.09
2022-10-19T23:04:10.632Z,100671.94
2022-10-19T23:07:13.873Z,100658.81
2022-10-19T23:10:17.075Z,100660.72
2022-10-19T23:13:20.262Z,100660.59
2022-10-19T23:16:23.253Z,100667.66
2022-10-19T23:19:26.551Z,100668.66
2022-10-19T23:22:29.707Z,100668.97
2022-10-19T23:28:37.909Z,100669.78
2022-10-19T23:31:41.337Z,100674.41
2022-10-19T23:34:47.449Z,100670.47
2022-10-19T23:37:51.661Z,100673.50
2022-10-19T23:40:54.861Z,100682.53
2022-10-19T23:43:57.950Z,100681.13
2022-10-19T23:47:01.509Z,100690.00
2022-10-19T23:50:04.759Z,100687.00
2022-10-19T23:53:07.619Z,100692.53
2022-10-19T23:56:30.834Z,100691.59
2022-10-19T23:59:33.688Z,100702.53
